createdAt,value
2022-08-16T00:02:25.603Z,50.63
2022-08-16T00:04:54.267Z,50.74
2022-08-16T00:07:29.331Z,50.63
2022-08-16T00:09:58.722Z,50.66
2022-08-16T00:12:27.624Z,50.80
2022-08-16T00:14:56.998Z,50.81
2022-08-16T00:17:28.289Z,50.77
2022-08-16T00:19:57.200Z,50.89
2022-08-16T00:22:27.957Z,50.80
2022-08-16T00:24:56.736Z,50.94
2022-08-16T00:27:25.464Z,50.97
2022-08-16T00:30:08.267Z,51.07
2022-08-16T00:32:39.744Z,50.91
2022-08-16T00:35:15.291Z,50.70
2022-08-16T00:37:57.451Z,50.98
2022-08-16T00:40:36.745Z,50.80
2022-08-16T00:43:19.084Z,50.84
2022-08-16T00:46:34.109Z,50.93
2022-08-16T00:48:52.878Z,50.76
2022-08-16T00:51:23.803Z,50.78
2022-08-16T00:53:53.923Z,50.94
2022-08-16T00:56:56.466Z,50.91
2022-08-16T00:59:15.159Z,51.03
2022-08-16T01:01:44.730Z,50.93
2022-08-16T01:04:29.646Z,50.97
2022-08-16T01:07:01.317Z,51.06
2022-08-16T01:09:33.672Z,50.96
2022-08-16T01:12:03.286Z,50.86
2022-08-16T01:14:34.534Z,50.85
2022-08-16T01:17:03.093Z,50.92
2022-08-16T01:19:34.720Z,50.92
2022-08-16T01:22:48.559Z,50.89
2022-08-16T01:24:58.556Z,50.90
2022-08-16T01:27:31.050Z,50.98
2022-08-16T01:30:19.617Z,50.95
2022-08-16T01:33:01.225Z,51.00
2022-08-16T01:35:52.656Z,51.33
2022-08-16T01:38:28.327Z,51.33
2022-08-16T01:41:01.928Z,51.37
2022-08-16T01:43:31.545Z,51.32
2022-08-16T01:46:29.929Z,51.33
2022-08-16T01:48:49.907Z,51.46
2022-08-16T01:51:19.615Z,51.50
2022-08-16T01:53:55.531Z,51.46
2022-08-16T01:56:26.575Z,51.26
2022-08-16T01:58:57.190Z,51.19
2022-08-16T02:01:28.219Z,50.95
2022-08-16T02:03:58.491Z,51.04
2022-08-16T02:06:46.656Z,51.54
2022-08-16T02:09:17.801Z,51.47
2022-08-16T02:11:53.292Z,51.16
2022-08-16T02:14:26.184Z,51.20
2022-08-16T02:16:56.397Z,51.48
2022-08-16T02:19:58.765Z,51.11
2022-08-16T02:22:34.395Z,51.32
2022-08-16T02:25:07.485Z,51.44
2022-08-16T02:27:39.820Z,51.56
2022-08-16T02:30:37.612Z,51.54
2022-08-16T02:33:03.890Z,51.67
2022-08-16T02:35:33.126Z,51.63
2022-08-16T02:38:08.919Z,51.45
2022-08-16T02:40:37.986Z,51.30
2022-08-16T02:43:07.976Z,51.22
2022-08-16T02:45:36.774Z,51.44
2022-08-16T02:48:28.540Z,51.60
2022-08-16T02:51:05.817Z,51.44
2022-08-16T02:53:35.554Z,51.44
2022-08-16T02:56:05.491Z,51.31
2022-08-16T02:58:39.962Z,51.24
2022-08-16T03:01:12.737Z,51.30
2022-08-16T03:04:48.821Z,51.12
2022-08-16T03:06:43.180Z,51.25
2022-08-16T03:09:14.914Z,51.23
2022-08-16T03:11:45.746Z,51.19
2022-08-16T03:14:21.291Z,51.17
2022-08-16T03:16:59.746Z,51.21
2022-08-16T03:19:46.914Z,51.24
2022-08-16T03:22:19.228Z,51.16
2022-08-16T03:24:58.738Z,51.22
2022-08-16T03:27:32.544Z,51.10
2022-08-16T03:30:16.646Z,51.37
2022-08-16T03:32:47.272Z,51.18
2022-08-16T03:35:17.556Z,51.31
2022-08-16T03:38:01.840Z,51.36
2022-08-16T03:40:33.986Z,51.30
2022-08-16T03:43:20.667Z,51.47
2022-08-16T03:45:52.739Z,51.37
2022-08-16T03:48:36.636Z,51.44
2022-08-16T03:51:12.134Z,51.27
2022-08-16T03:53:41.673Z,51.23
2022-08-16T03:56:20.025Z,51.27
2022-08-16T03:58:51.105Z,51.37
2022-08-16T04:01:23.084Z,51.19
2022-08-16T04:03:52.914Z,51.30
2022-08-16T04:06:23.732Z,51.41
2022-08-16T04:08:52.234Z,51.32
2022-08-16T04:11:23.636Z,51.52
2022-08-16T04:13:59.019Z,51.53
2022-08-16T04:16:32.410Z,51.17
2022-08-16T04:19:04.462Z,51.48
2022-08-16T04:21:34.541Z,51.29
2022-08-16T04:24:03.474Z,51.55
2022-08-16T04:26:32.453Z,51.34
2022-08-16T04:29:18.298Z,51.50
2022-08-16T04:31:56.242Z,51.49
2022-08-16T04:34:28.832Z,51.55
2022-08-16T04:37:01.084Z,51.29
2022-08-16T04:39:46.135Z,51.57
2022-08-16T04:42:17.536Z,51.55
2022-08-16T04:44:53.791Z,51.78
2022-08-16T04:47:33.187Z,51.93
2022-08-16T04:50:07.786Z,51.90
2022-08-16T04:52:36.762Z,51.57
2022-08-16T04:55:11.745Z,51.62
2022-08-16T04:57:41.597Z,51.51
2022-08-16T05:00:31.304Z,51.53
2022-08-16T05:03:08.217Z,51.53
2022-08-16T05:05:44.781Z,51.67
2022-08-16T05:08:28.026Z,51.39
2022-08-16T05:11:00.228Z,51.84
2022-08-16T05:13:40.461Z,52.05
2022-08-16T05:16:20.357Z,51.97
2022-08-16T05:18:52.855Z,52.07
2022-08-16T05:21:22.293Z,52.12
2022-08-16T05:23:55.458Z,51.91
2022-08-16T05:26:27.808Z,51.90
2022-08-16T05:28:57.911Z,52.16
2022-08-16T05:31:29.773Z,52.21
2022-08-16T05:34:03.635Z,52.05
2022-08-16T05:36:34.115Z,52.03
2022-08-16T05:39:08.608Z,51.97
2022-08-16T05:41:45.614Z,52.01
2022-08-16T05:44:22.873Z,52.23
2022-08-16T05:46:55.931Z,52.27
2022-08-16T05:49:38.489Z,52.23
2022-08-16T05:52:11.402Z,52.06
2022-08-16T05:54:46.589Z,51.57
2022-08-16T05:57:17.120Z,51.72
2022-08-16T05:59:47.419Z,51.85
2022-08-16T06:02:19.095Z,51.92
2022-08-16T06:04:48.807Z,51.98
2022-08-16T06:07:26.254Z,51.85
2022-08-16T06:09:59.667Z,51.91
2022-08-16T06:12:28.965Z,52.30
2022-08-16T06:14:59.803Z,51.94
2022-08-16T06:17:41.120Z,51.90
2022-08-16T06:20:14.697Z,51.77
2022-08-16T06:22:47.575Z,51.88
2022-08-16T06:25:36.755Z,52.14
2022-08-16T06:28:09.563Z,52.53
2022-08-16T06:30:43.412Z,52.21
2022-08-16T06:33:13.382Z,52.09
2022-08-16T06:35:55.075Z,52.36
2022-08-16T06:38:33.260Z,51.57
2022-08-16T06:41:05.515Z,51.28
2022-08-16T06:43:34.597Z,51.80
2022-08-16T06:46:05.158Z,51.87
2022-08-16T06:48:34.103Z,52.07
2022-08-16T06:51:05.909Z,52.05
2022-08-16T06:53:36.495Z,51.94
2022-08-16T06:56:14.483Z,51.80
2022-08-16T06:58:53.107Z,52.06
2022-08-16T07:01:43.056Z,51.71
2022-08-16T07:04:12.802Z,52.01
2022-08-16T07:07:02.127Z,52.00
2022-08-16T07:09:32.533Z,51.90
2022-08-16T07:12:03.522Z,52.06
2022-08-16T07:14:35.183Z,52.03
2022-08-16T07:17:08.299Z,51.75
2022-08-16T07:20:03.532Z,51.68
2022-08-16T07:22:38.959Z,51.79
2022-08-16T07:25:10.242Z,52.53
2022-08-16T07:27:41.228Z,52.03
2022-08-16T07:30:39.127Z,52.56
2022-08-16T07:33:02.507Z,52.94
2022-08-16T07:35:31.329Z,53.06
2022-08-16T07:38:01.686Z,53.49
2022-08-16T07:40:59.138Z,52.79
2022-08-16T07:43:20.543Z,52.27
2022-08-16T07:45:53.129Z,52.30
2022-08-16T07:48:22.050Z,52.41
2022-08-16T07:50:58.403Z,51.81
2022-08-16T07:53:30.365Z,51.63
2022-08-16T07:56:00.515Z,51.91
2022-08-16T07:58:33.861Z,52.50
2022-08-16T08:01:10.791Z,51.97
2022-08-16T08:03:47.682Z,51.91
2022-08-16T08:06:18.614Z,52.04
2022-08-16T08:08:50.452Z,52.02
2022-08-16T08:11:23.902Z,51.82
2022-08-16T08:13:53.745Z,52.03
2022-08-16T08:16:30.384Z,51.96
2022-08-16T08:19:02.773Z,51.86
2022-08-16T08:21:59.353Z,52.21
2022-08-16T08:24:22.547Z,52.09
2022-08-16T08:27:02.412Z,51.62
2022-08-16T08:29:37.098Z,51.99
2022-08-16T08:32:51.124Z,51.58
2022-08-16T08:35:00.519Z,51.98
2022-08-16T08:37:54.410Z,51.71
2022-08-16T08:40:24.577Z,51.88
2022-08-16T08:42:57.631Z,52.00
2022-08-16T08:45:47.172Z,52.08
2022-08-16T08:48:34.767Z,51.95
2022-08-16T08:51:05.523Z,52.08
2022-08-16T08:53:38.053Z,52.37
2022-08-16T08:56:23.820Z,52.68
2022-08-16T08:59:00.204Z,52.73
2022-08-16T09:01:36.775Z,53.12
2022-08-16T09:04:14.677Z,53.42
2022-08-16T09:06:46.110Z,53.65
2022-08-16T09:09:17.109Z,53.31
2022-08-16T09:11:53.719Z,53.42
2022-08-16T09:14:35.757Z,53.64
2022-08-16T09:17:11.711Z,53.59
2022-08-16T09:19:46.105Z,53.96
2022-08-16T09:22:19.813Z,54.02
2022-08-16T09:24:53.273Z,54.00
2022-08-16T09:27:25.156Z,54.29
2022-08-16T09:30:00.414Z,53.65
2022-08-16T09:32:31.444Z,54.27
2022-08-16T09:35:01.793Z,54.03
2022-08-16T09:37:36.457Z,53.76
2022-08-16T09:40:32.528Z,52.85
2022-08-16T09:42:59.182Z,52.57
2022-08-16T09:45:39.263Z,51.57
2022-08-16T09:48:08.184Z,50.83
2022-08-16T09:50:39.824Z,51.26
2022-08-16T09:53:15.448Z,51.11
2022-08-16T09:55:49.353Z,50.96
2022-08-16T09:58:37.680Z,51.24
2022-08-16T10:01:11.813Z,51.65
2022-08-16T10:04:01.839Z,51.16
2022-08-16T10:06:34.013Z,51.03
2022-08-16T10:09:05.146Z,51.02
2022-08-16T10:11:54.935Z,50.84
2022-08-16T10:14:32.979Z,50.83
2022-08-16T10:17:03.734Z,50.84
2022-08-16T10:19:32.394Z,50.24
2022-08-16T10:22:04.880Z,49.29
2022-08-16T10:24:34.369Z,48.78
2022-08-16T10:27:26.820Z,49.21
2022-08-16T10:30:00.004Z,49.56
2022-08-16T10:32:32.113Z,49.39
2022-08-16T10:35:01.992Z,49.89
2022-08-16T10:37:32.752Z,50.59
2022-08-16T10:40:06.431Z,49.86
2022-08-16T10:42:55.259Z,49.59
2022-08-16T10:45:25.556Z,49.89
2022-08-16T10:48:02.022Z,50.74
2022-08-16T10:50:32.644Z,50.77
2022-08-16T10:53:07.484Z,50.22
2022-08-16T10:55:43.720Z,49.50
2022-08-16T10:58:16.870Z,49.95
2022-08-16T11:00:47.302Z,49.92
2022-08-16T11:06:07.491Z,51.27
2022-08-16T11:08:43.344Z,50.64
2022-08-16T11:11:19.741Z,50.45
2022-08-16T11:13:59.386Z,50.47
2022-08-16T11:19:18.371Z,50.60
2022-08-16T11:24:42.310Z,49.46
2022-08-16T11:27:23.869Z,48.98
2022-08-16T11:30:01.221Z,46.96
2022-08-16T11:32:33.639Z,46.77
2022-08-16T11:35:11.152Z,45.99
2022-08-16T11:40:38.914Z,46.47
2022-08-16T11:43:10.222Z,47.54
2022-08-16T11:45:39.258Z,47.14
2022-08-16T11:48:14.078Z,47.05
2022-08-16T11:50:43.057Z,46.79
2022-08-16T11:53:12.861Z,46.56
2022-08-16T11:55:44.370Z,46.71
2022-08-16T11:58:14.546Z,47.53
2022-08-16T12:00:51.078Z,46.62
2022-08-16T12:03:34.689Z,47.37
2022-08-16T12:06:10.842Z,48.86
2022-08-16T12:08:40.027Z,49.16
2022-08-16T12:11:10.173Z,48.92
2022-08-16T12:13:38.977Z,47.97
2022-08-16T12:16:09.318Z,47.66
2022-08-16T12:18:41.512Z,47.33
2022-08-16T12:21:10.702Z,47.02
2022-08-16T12:23:40.088Z,46.45
2022-08-16T12:26:10.602Z,46.48
2022-08-16T12:28:56.241Z,46.52
2022-08-16T12:31:25.773Z,47.67
2022-08-16T12:33:57.492Z,47.99
2022-08-16T12:36:29.737Z,47.98
2022-08-16T12:38:59.734Z,47.54
2022-08-16T12:41:29.492Z,47.92
2022-08-16T12:44:04.377Z,47.98
2022-08-16T12:46:32.861Z,48.29
2022-08-16T12:49:03.520Z,48.16
2022-08-16T12:51:59.777Z,48.12
2022-08-16T12:54:22.986Z,48.44
2022-08-16T12:56:51.475Z,48.25
2022-08-16T12:59:20.957Z,48.29
2022-08-16T13:01:50.485Z,48.30
2022-08-16T13:04:28.178Z,48.87
2022-08-16T13:09:37.783Z,48.71
2022-08-16T13:12:19.909Z,49.06
2022-08-16T13:14:49.830Z,49.32
2022-08-16T13:17:20.893Z,49.27
2022-08-16T13:20:11.135Z,49.69
2022-08-16T13:22:42.347Z,49.84
2022-08-16T13:25:13.955Z,50.17
2022-08-16T13:28:02.403Z,50.59
2022-08-16T13:30:37.862Z,50.64
2022-08-16T13:33:13.346Z,51.26
2022-08-16T13:35:57.793Z,51.27
2022-08-16T13:38:30.165Z,51.12
2022-08-16T13:41:02.648Z,51.39
2022-08-16T13:43:32.737Z,51.52
2022-08-16T13:46:02.997Z,51.28
2022-08-16T13:48:42.867Z,51.16
2022-08-16T13:51:17.113Z,51.02
2022-08-16T13:53:54.581Z,50.82
2022-08-16T13:56:37.446Z,51.12
2022-08-16T13:59:19.143Z,51.07
2022-08-16T14:01:55.352Z,51.21
2022-08-16T14:04:27.575Z,50.18
2022-08-16T14:06:58.150Z,50.41
2022-08-16T14:09:27.092Z,50.31
2022-08-16T14:11:55.960Z,49.89
2022-08-16T14:14:29.321Z,49.50
2022-08-16T14:16:59.207Z,49.63
2022-08-16T14:19:29.798Z,49.94
2022-08-16T14:22:13.970Z,50.06
2022-08-16T14:24:46.803Z,50.02
2022-08-16T14:27:17.161Z,49.87
2022-08-16T14:29:49.199Z,50.14
2022-08-16T14:32:27.094Z,50.32
2022-08-16T14:35:03.415Z,50.22
2022-08-16T14:37:34.623Z,50.05
2022-08-16T14:40:05.915Z,49.93
2022-08-16T14:42:36.715Z,49.65
2022-08-16T14:45:07.710Z,49.31
2022-08-16T14:47:38.467Z,49.66
2022-08-16T14:50:08.889Z,49.58
2022-08-16T14:52:54.554Z,49.41
2022-08-16T14:55:26.131Z,49.04
2022-08-16T14:57:54.782Z,47.32
2022-08-16T15:00:32.772Z,47.31
2022-08-16T15:03:04.433Z,46.71
2022-08-16T15:05:33.227Z,46.04
2022-08-16T15:08:05.384Z,46.30
2022-08-16T15:10:34.010Z,46.54
2022-08-16T15:13:09.395Z,46.33
2022-08-16T15:15:38.704Z,46.61
2022-08-16T15:18:11.874Z,46.92
2022-08-16T15:20:41.257Z,47.09
2022-08-16T15:23:11.842Z,47.06
2022-08-16T15:25:42.661Z,47.07
2022-08-16T15:28:31.086Z,46.67
2022-08-16T15:31:04.011Z,45.92
2022-08-16T15:33:33.818Z,45.33
2022-08-16T15:36:03.365Z,44.94
2022-08-16T15:39:03.828Z,45.19
2022-08-16T15:41:58.390Z,44.37
2022-08-16T15:44:42.737Z,44.89
2022-08-16T15:47:19.559Z,44.96
2022-08-16T15:49:54.671Z,45.31
2022-08-16T15:52:31.599Z,45.53
2022-08-16T15:55:13.342Z,45.29
2022-08-16T15:57:52.853Z,46.50
2022-08-16T16:00:21.892Z,46.16
2022-08-16T16:02:50.577Z,46.27
2022-08-16T16:05:21.032Z,46.37
2022-08-16T16:07:56.900Z,46.13
2022-08-16T16:10:40.375Z,46.41
2022-08-16T16:13:10.281Z,46.26
2022-08-16T16:15:40.585Z,46.62
2022-08-16T16:18:10.080Z,46.38
2022-08-16T16:20:39.801Z,46.30
2022-08-16T16:23:11.107Z,46.43
2022-08-16T16:25:43.837Z,46.67
2022-08-16T16:29:08.902Z,46.81
2022-08-16T16:31:04.868Z,47.72
2022-08-16T16:33:34.063Z,47.70
2022-08-16T16:36:06.848Z,47.40
2022-08-16T16:38:35.676Z,47.00
2022-08-16T16:41:10.074Z,46.68
2022-08-16T16:43:40.746Z,46.82
2022-08-16T16:46:32.806Z,46.71
2022-08-16T16:48:58.715Z,46.92
2022-08-16T16:51:28.136Z,46.95
2022-08-16T16:53:57.422Z,47.33
2022-08-16T16:56:32.318Z,47.60
2022-08-16T16:59:08.312Z,48.40
2022-08-16T17:01:56.840Z,48.92
2022-08-16T17:04:31.718Z,49.33
2022-08-16T17:07:02.509Z,49.60
2022-08-16T17:09:31.245Z,49.57
2022-08-16T17:12:05.512Z,50.14
2022-08-16T17:14:34.705Z,50.70
2022-08-16T17:17:06.985Z,50.99
2022-08-16T17:19:40.909Z,51.39
2022-08-16T17:22:14.248Z,51.62
2022-08-16T17:24:50.972Z,51.34
2022-08-16T17:27:32.656Z,52.04
2022-08-16T17:30:17.036Z,52.18
2022-08-16T17:32:50.505Z,51.88
2022-08-16T17:35:34.058Z,51.68
2022-08-16T17:38:06.078Z,51.98
2022-08-16T17:40:47.948Z,51.98
2022-08-16T17:43:27.672Z,52.23
2022-08-16T17:45:56.219Z,52.96
2022-08-16T17:48:24.947Z,52.16
2022-08-16T17:50:54.566Z,52.62
2022-08-16T17:53:23.596Z,52.71
2022-08-16T17:55:52.339Z,52.44
2022-08-16T17:58:23.258Z,52.96
2022-08-16T18:00:57.533Z,53.07
2022-08-16T18:04:03.264Z,53.24
2022-08-16T18:06:18.586Z,53.27
2022-08-16T18:08:48.910Z,52.65
2022-08-16T18:11:25.879Z,52.98
2022-08-16T18:13:55.440Z,52.37
2022-08-16T18:16:25.955Z,53.33
2022-08-16T18:18:54.472Z,53.23
2022-08-16T18:21:40.804Z,53.21
2022-08-16T18:24:09.714Z,53.39
2022-08-16T18:26:38.775Z,53.37
2022-08-16T18:29:07.287Z,53.03
2022-08-16T18:31:37.243Z,53.14
2022-08-16T18:34:06.266Z,52.94
2022-08-16T18:36:34.746Z,52.82
2022-08-16T18:39:03.290Z,53.09
2022-08-16T18:41:36.957Z,53.01
2022-08-16T18:44:25.442Z,53.37
2022-08-16T18:46:57.749Z,53.64
2022-08-16T18:49:26.371Z,53.20
2022-08-16T18:51:58.425Z,53.17
2022-08-16T18:54:28.235Z,52.58
2022-08-16T18:56:58.226Z,52.37
2022-08-16T18:59:28.194Z,52.64
2022-08-16T19:02:00.073Z,52.43
2022-08-16T19:04:56.838Z,53.04
2022-08-16T19:07:23.008Z,52.85
2022-08-16T19:09:58.771Z,52.24
2022-08-16T19:12:38.057Z,52.61
2022-08-16T19:15:14.324Z,52.38
2022-08-16T19:17:44.714Z,52.71
2022-08-16T19:20:15.214Z,52.99
2022-08-16T19:25:47.609Z,52.74
2022-08-16T19:28:51.863Z,52.32
2022-08-16T19:31:12.258Z,52.66
2022-08-16T19:33:53.409Z,52.92
2022-08-16T19:36:31.753Z,53.66
2022-08-16T19:39:04.548Z,53.62
2022-08-16T19:41:36.318Z,53.63
2022-08-16T19:44:05.853Z,54.11
2022-08-16T19:46:34.453Z,54.26
2022-08-16T19:49:04.825Z,54.20
2022-08-16T19:51:33.476Z,54.28
2022-08-16T19:54:02.036Z,54.21
2022-08-16T19:56:30.826Z,54.28
2022-08-16T20:01:49.426Z,54.20
2022-08-16T20:04:19.328Z,54.43
2022-08-16T20:06:48.366Z,54.37
2022-08-16T20:09:16.916Z,54.52
2022-08-16T20:11:45.798Z,54.34
2022-08-16T20:14:24.028Z,54.34
2022-08-16T20:16:54.605Z,54.17
2022-08-16T20:19:24.998Z,54.01
2022-08-16T20:21:53.753Z,53.68
2022-08-16T20:24:34.177Z,53.71
2022-08-16T20:27:03.795Z,53.86
2022-08-16T20:29:34.439Z,54.10
2022-08-16T20:32:03.042Z,54.08
2022-08-16T20:34:33.065Z,53.74
2022-08-16T20:37:01.561Z,53.81
2022-08-16T20:39:30.355Z,53.83
2022-08-16T20:41:59.714Z,53.60
2022-08-16T20:44:28.200Z,54.12
2022-08-16T20:46:57.721Z,54.45
2022-08-16T20:49:26.179Z,54.49
2022-08-16T20:51:59.593Z,54.41
2022-08-16T20:54:28.919Z,54.32
2022-08-16T20:56:57.472Z,54.06
2022-08-16T20:59:26.141Z,53.71
2022-08-16T21:01:54.625Z,53.54
2022-08-16T21:04:27.519Z,53.41
2022-08-16T21:06:58.448Z,53.63
2022-08-16T21:09:29.091Z,53.51
2022-08-16T21:12:01.045Z,53.29
2022-08-16T21:14:32.616Z,52.88
2022-08-16T21:17:01.426Z,53.13
2022-08-16T21:19:30.138Z,53.70
2022-08-16T21:22:00.037Z,54.07
2022-08-16T21:24:28.530Z,53.78
2022-08-16T21:26:58.697Z,53.48
2022-08-16T21:29:42.857Z,53.39
2022-08-16T21:32:15.224Z,53.70
2022-08-16T21:34:43.837Z,53.97
2022-08-16T21:37:15.691Z,53.70
2022-08-16T21:39:44.501Z,53.60
2022-08-16T21:42:14.319Z,53.96
2022-08-16T21:44:42.850Z,53.98
2022-08-16T21:47:11.536Z,54.25
2022-08-16T21:49:40.070Z,54.14
2022-08-16T21:52:09.277Z,54.39
2022-08-16T21:54:54.113Z,54.21
2022-08-16T21:57:25.080Z,54.43
2022-08-16T21:59:54.736Z,54.97
2022-08-16T22:02:26.006Z,54.97
2022-08-16T22:05:05.538Z,55.33
2022-08-16T22:07:34.382Z,54.81
2022-08-16T22:11:04.857Z,54.48
2022-08-16T22:12:53.606Z,54.30
2022-08-16T22:15:25.781Z,54.37
2022-08-16T22:17:55.846Z,54.27
2022-08-16T22:20:25.104Z,54.67
2022-08-16T22:22:53.568Z,54.59
2022-08-16T22:25:23.564Z,54.72
2022-08-16T22:27:52.190Z,55.01
2022-08-16T22:30:20.931Z,55.03
2022-08-16T22:32:49.741Z,55.19
2022-08-16T22:35:19.293Z,55.00
2022-08-16T22:38:53.441Z,55.65
2022-08-16T22:40:39.368Z,55.01
2022-08-16T22:43:08.259Z,55.28
2022-08-16T22:45:37.192Z,55.48
2022-08-16T22:48:06.069Z,55.97
2022-08-16T22:50:35.548Z,55.66
2022-08-16T22:53:04.258Z,56.26
2022-08-16T22:55:34.640Z,55.39
2022-08-16T22:58:04.953Z,55.45
2022-08-16T23:00:34.276Z,55.77
2022-08-16T23:03:04.706Z,55.65
2022-08-16T23:05:36.262Z,55.95
2022-08-16T23:08:05.494Z,55.79
2022-08-16T23:10:34.058Z,55.80
2022-08-16T23:13:06.348Z,55.94
2022-08-16T23:15:41.151Z,55.33
2022-08-16T23:18:09.748Z,55.70
2022-08-16T23:20:39.161Z,55.58
2022-08-16T23:23:19.868Z,55.15
2022-08-16T23:25:51.664Z,55.28
2022-08-16T23:28:26.528Z,55.71
2022-08-16T23:30:55.038Z,55.25
2022-08-16T23:33:24.130Z,55.51
2022-08-16T23:35:55.512Z,56.01
2022-08-16T23:38:37.497Z,55.82
2022-08-16T23:41:11.477Z,55.39
2022-08-16T23:43:43.275Z,54.71
2022-08-16T23:46:17.790Z,54.80
2022-08-16T23:50:01.795Z,54.69
2022-08-16T23:51:35.570Z,55.17
2022-08-16T23:54:05.488Z,55.56
2022-08-16T23:56:40.277Z,55.71
2022-08-16T23:59:11.298Z,55.98
